BIH weather

Eastern Sierra Regional Airport
Bishop, California, United States

Public forecast

Using degrees Fahrenheit for public forecast. Weather courtesy of forecast.io.

METAR (pilot weather report)

Report is more than 2 hours old.

Retrieved 2019/07/24 04:56 UTC (3 hours ago):

KBIH 240456Z AUTO 32007KT 10SM CLR 21/13 A3018 RMK AO2 SLP168 T02060128

TAF (pilot weather forecast)

Retrieved 2019/07/24 06:39 UTC (1 hour ago):

TAF KBIH 240536Z 2406/2506 32007KT P6SM SCT150 SCT200 FM242100 16010G17KT P6SM VCTS BKN100CB OVC200 FM250100 32008KT P6SM FEW080 SCT110 BKN200